sensor_id;sensor_type;location;lat;lon;timestamp;pressure;altitude;pressure_sealevel;temperature;humidity
20009;BME280;10165;42.662;23.260;2023-05-29T00:00:36;93921.19;;;17.19;66.73
20009;BME280;10165;42.662;23.260;2023-05-29T00:03:03;93924.34;;;16.89;67.11
20009;BME280;10165;42.662;23.260;2023-05-29T00:05:32;93912.00;;;16.85;68.17
20009;BME280;10165;42.662;23.260;2023-05-29T00:07:58;93915.41;;;17.24;67.51
20009;BME280;10165;42.662;23.260;2023-05-29T00:10:25;93918.00;;;17.45;66.43
20009;BME280;10165;42.662;23.260;2023-05-29T00:12:52;93925.00;;;17.25;66.54
20009;BME280;10165;42.662;23.260;2023-05-29T00:15:18;93931.66;;;16.96;67.27
20009;BME280;10165;42.662;23.260;2023-05-29T00:17:45;93931.91;;;17.37;66.88
20009;BME280;10165;42.662;23.260;2023-05-29T00:20:13;93928.00;;;17.62;66.18
20009;BME280;10165;42.662;23.260;2023-05-29T00:22:40;93929.56;;;17.49;66.65
20009;BME280;10165;42.662;23.260;2023-05-29T00:25:07;93924.25;;;17.17;67.40
20009;BME280;10165;42.662;23.260;2023-05-29T00:27:35;93928.19;;;16.92;68.52
20009;BME280;10165;42.662;23.260;2023-05-29T00:30:03;93931.91;;;17.44;67.77
20009;BME280;10165;42.662;23.260;2023-05-29T00:32:30;93929.94;;;17.62;67.24
20009;BME280;10165;42.662;23.260;2023-05-29T00:34:57;93919.97;;;17.34;68.26
20009;BME280;10165;42.662;23.260;2023-05-29T00:37:24;93924.19;;;17.42;68.82
20009;BME280;10165;42.662;23.260;2023-05-29T00:39:52;93918.75;;;17.53;67.82
20009;BME280;10165;42.662;23.260;2023-05-29T00:42:18;93919.00;;;17.87;67.61
20009;BME280;10165;42.662;23.260;2023-05-29T00:44:45;93923.97;;;17.95;66.26
20009;BME280;10165;42.662;23.260;2023-05-29T00:47:12;93922.41;;;17.98;66.57
20009;BME280;10165;42.662;23.260;2023-05-29T00:49:40;93913.84;;;18.10;65.98
20009;BME280;10165;42.662;23.260;2023-05-29T00:52:07;93919.91;;;18.32;65.20
20009;BME280;10165;42.662;23.260;2023-05-29T00:54:35;93913.75;;;18.28;65.35
20009;BME280;10165;42.662;23.260;2023-05-29T00:57:04;93906.41;;;18.25;65.09
20009;BME280;10165;42.662;23.260;2023-05-29T00:59:33;93911.56;;;18.05;65.05
20009;BME280;10165;42.662;23.260;2023-05-29T01:02:02;93911.53;;;17.32;67.30
20009;BME280;10165;42.662;23.260;2023-05-29T01:04:29;93908.06;;;17.21;67.90
20009;BME280;10165;42.662;23.260;2023-05-29T01:06:56;93901.78;;;17.49;67.33
20009;BME280;10165;42.662;23.260;2023-05-29T01:09:23;93898.84;;;17.11;67.74
20009;BME280;10165;42.662;23.260;2023-05-29T01:20:50;93910.03;;;17.06;69.22
20009;BME280;10165;42.662;23.260;2023-05-29T01:23:40;93900.69;;;17.43;67.84
20009;BME280;10165;42.662;23.260;2023-05-29T01:28:46;93919.72;;;16.72;70.44
20009;BME280;10165;42.662;23.260;2023-05-29T01:31:17;93918.13;;;17.10;68.90
20009;BME280;10165;42.662;23.260;2023-05-29T01:33:57;93921.19;;;17.15;68.54
20009;BME280;10165;42.662;23.260;2023-05-29T01:36:26;93920.41;;;17.22;68.50
20009;BME280;10165;42.662;23.260;2023-05-29T01:38:55;93920.34;;;17.43;67.48
20009;BME280;10165;42.662;23.260;2023-05-29T01:41:23;93915.06;;;17.01;68.76
20009;BME280;10165;42.662;23.260;2023-05-29T01:43:51;93919.31;;;17.09;68.68
20009;BME280;10165;42.662;23.260;2023-05-29T01:46:19;93918.91;;;17.10;69.04
20009;BME280;10165;42.662;23.260;2023-05-29T01:48:47;93918.09;;;17.28;68.62
20009;BME280;10165;42.662;23.260;2023-05-29T01:51:14;93916.44;;;17.55;67.33
20009;BME280;10165;42.662;23.260;2023-05-29T01:53:42;93913.38;;;17.46;67.47
20009;BME280;10165;42.662;23.260;2023-05-29T01:56:09;93907.97;;;17.46;67.34
20009;BME280;10165;42.662;23.260;2023-05-29T01:58:38;93912.72;;;17.13;68.75
20009;BME280;10165;42.662;23.260;2023-05-29T02:01:06;93907.72;;;17.15;69.65
20009;BME280;10165;42.662;23.260;2023-05-29T02:03:34;93909.50;;;17.54;68.19
20009;BME280;10165;42.662;23.260;2023-05-29T02:06:01;93911.69;;;17.84;66.68
20009;BME280;10165;42.662;23.260;2023-05-29T02:08:28;93907.91;;;17.71;67.26
20009;BME280;10165;42.662;23.260;2023-05-29T02:10:55;93911.50;;;17.36;68.58
20009;BME280;10165;42.662;23.260;2023-05-29T02:13:22;93900.78;;;17.07;70.21
20009;BME280;10165;42.662;23.260;2023-05-29T02:15:49;93908.81;;;17.29;69.50
20009;BME280;10165;42.662;23.260;2023-05-29T02:18:16;93897.22;;;17.35;68.90
20009;BME280;10165;42.662;23.260;2023-05-29T02:20:47;93898.66;;;17.64;67.90
20009;BME280;10165;42.662;23.260;2023-05-29T02:23:14;93895.47;;;17.84;67.20
20009;BME280;10165;42.662;23.260;2023-05-29T02:25:42;93898.47;;;18.00;66.37
20009;BME280;10165;42.662;23.260;2023-05-29T02:28:08;93896.19;;;17.95;66.21
20009;BME280;10165;42.662;23.260;2023-05-29T02:30:35;93893.84;;;18.00;66.04
20009;BME280;10165;42.662;23.260;2023-05-29T02:33:03;93901.44;;;18.20;64.95
20009;BME280;10165;42.662;23.260;2023-05-29T02:35:30;93896.84;;;18.09;65.24
20009;BME280;10165;42.662;23.260;2023-05-29T02:37:56;93904.06;;;17.64;66.83
20009;BME280;10165;42.662;23.260;2023-05-29T02:40:23;93905.66;;;17.51;67.71
20009;BME280;10165;42.662;23.260;2023-05-29T02:42:50;93913.75;;;17.44;67.60
20009;BME280;10165;42.662;23.260;2023-05-29T02:45:17;93906.97;;;17.08;68.48
20009;BME280;10165;42.662;23.260;2023-05-29T02:47:44;93898.78;;;17.36;67.97
20009;BME280;10165;42.662;23.260;2023-05-29T02:50:11;93908.84;;;17.18;67.94
20009;BME280;10165;42.662;23.260;2023-05-29T02:52:38;93899.63;;;17.12;68.26
20009;BME280;10165;42.662;23.260;2023-05-29T02:55:04;93904.66;;;16.96;68.50
20009;BME280;10165;42.662;23.260;2023-05-29T02:57:32;93906.22;;;17.00;69.02
20009;BME280;10165;42.662;23.260;2023-05-29T02:59:59;93905.00;;;17.19;68.30
20009;BME280;10165;42.662;23.260;2023-05-29T03:02:27;93904.66;;;17.03;68.49
20009;BME280;10165;42.662;23.260;2023-05-29T03:04:54;93910.50;;;16.69;69.93
20009;BME280;10165;42.662;23.260;2023-05-29T03:07:21;93907.00;;;16.90;70.17
20009;BME280;10165;42.662;23.260;2023-05-29T03:09:48;93905.75;;;17.23;69.47
20009;BME280;10165;42.662;23.260;2023-05-29T03:12:15;93907.56;;;17.54;68.13
20009;BME280;10165;42.662;23.260;2023-05-29T03:14:43;93912.47;;;17.81;67.15
20009;BME280;10165;42.662;23.260;2023-05-29T03:17:09;93913.63;;;17.80;67.34
20009;BME280;10165;42.662;23.260;2023-05-29T03:19:36;93907.97;;;17.49;68.95
20009;BME280;10165;42.662;23.260;2023-05-29T03:22:05;93907.59;;;17.51;69.15
20009;BME280;10165;42.662;23.260;2023-05-29T03:24:31;93907.53;;;17.68;68.65
20009;BME280;10165;42.662;23.260;2023-05-29T03:27:01;93906.59;;;18.00;67.09
20009;BME280;10165;42.662;23.260;2023-05-29T03:29:31;93901.69;;;17.77;68.09
20009;BME280;10165;42.662;23.260;2023-05-29T03:31:58;93904.41;;;17.74;68.24
20009;BME280;10165;42.662;23.260;2023-05-29T03:34:25;93910.94;;;17.76;68.09
20009;BME280;10165;42.662;23.260;2023-05-29T03:36:53;93910.31;;;17.47;68.89
20009;BME280;10165;42.662;23.260;2023-05-29T03:39:20;93916.59;;;17.12;69.96
20009;BME280;10165;42.662;23.260;2023-05-29T03:41:46;93918.91;;;17.00;70.88
20009;BME280;10165;42.662;23.260;2023-05-29T03:44:13;93924.34;;;16.86;72.12
20009;BME280;10165;42.662;23.260;2023-05-29T03:46:43;93924.22;;;17.35;71.02
20009;BME280;10165;42.662;23.260;2023-05-29T03:49:10;93934.63;;;17.44;70.35
20009;BME280;10165;42.662;23.260;2023-05-29T03:51:36;93942.34;;;17.38;70.52
20009;BME280;10165;42.662;23.260;2023-05-29T03:54:03;93931.94;;;17.30;70.60
20009;BME280;10165;42.662;23.260;2023-05-29T03:56:30;93941.25;;;17.14;71.81
20009;BME280;10165;42.662;23.260;2023-05-29T03:58:56;93929.69;;;17.07;72.88
20009;BME280;10165;42.662;23.260;2023-05-29T04:01:23;93936.63;;;17.08;73.78
20009;BME280;10165;42.662;23.260;2023-05-29T04:03:50;93944.34;;;17.06;74.08
20009;BME280;10165;42.662;23.260;2023-05-29T04:06:17;93947.03;;;17.06;74.00
20009;BME280;10165;42.662;23.260;2023-05-29T04:08:44;93954.28;;;17.41;73.37
20009;BME280;10165;42.662;23.260;2023-05-29T04:11:11;93953.84;;;17.53;72.02
20009;BME280;10165;42.662;23.260;2023-05-29T04:13:38;93955.78;;;17.52;72.83
20009;BME280;10165;42.662;23.260;2023-05-29T04:16:06;93956.53;;;17.74;72.45
20009;BME280;10165;42.662;23.260;2023-05-29T04:18:33;93949.91;;;17.86;71.80
20009;BME280;10165;42.662;23.260;2023-05-29T04:21:00;93948.28;;;17.99;71.29
20009;BME280;10165;42.662;23.260;2023-05-29T04:23:27;93944.81;;;17.98;70.37
20009;BME280;10165;42.662;23.260;2023-05-29T04:25:54;93952.63;;;17.79;70.94
20009;BME280;10165;42.662;23.260;2023-05-29T04:28:20;93959.34;;;17.17;72.06
20009;BME280;10165;42.662;23.260;2023-05-29T04:30:48;93952.72;;;17.57;72.00
20009;BME280;10165;42.662;23.260;2023-05-29T04:33:15;93955.41;;;17.57;72.05
20009;BME280;10165;42.662;23.260;2023-05-29T04:35:41;93950.97;;;17.99;70.31
20009;BME280;10165;42.662;23.260;2023-05-29T04:38:11;93953.06;;;18.39;68.56
20009;BME280;10165;42.662;23.260;2023-05-29T04:40:38;93955.44;;;18.30;68.95
20009;BME280;10165;42.662;23.260;2023-05-29T04:43:07;93961.88;;;18.50;68.58
20009;BME280;10165;42.662;23.260;2023-05-29T04:45:34;93958.09;;;18.34;68.79
20009;BME280;10165;42.662;23.260;2023-05-29T04:48:04;93957.03;;;18.24;69.03
20009;BME280;10165;42.662;23.260;2023-05-29T04:50:31;93965.66;;;17.94;70.30
20009;BME280;10165;42.662;23.260;2023-05-29T04:52:58;93965.66;;;18.01;70.47
20009;BME280;10165;42.662;23.260;2023-05-29T04:55:24;93954.63;;;18.33;68.99
20009;BME280;10165;42.662;23.260;2023-05-29T04:57:51;93965.50;;;18.26;68.61
20009;BME280;10165;42.662;23.260;2023-05-29T05:00:19;93974.03;;;18.17;69.24
20009;BME280;10165;42.662;23.260;2023-05-29T05:02:46;93980.13;;;18.32;68.98
20009;BME280;10165;42.662;23.260;2023-05-29T05:05:13;93973.50;;;18.47;68.69
20009;BME280;10165;42.662;23.260;2023-05-29T05:07:39;93983.97;;;18.38;68.80
20009;BME280;10165;42.662;23.260;2023-05-29T05:10:07;93984.19;;;18.65;67.65
20009;BME280;10165;42.662;23.260;2023-05-29T05:12:34;93995.16;;;18.40;68.71
20009;BME280;10165;42.662;23.260;2023-05-29T05:15:00;93993.97;;;18.45;68.93
20009;BME280;10165;42.662;23.260;2023-05-29T05:17:27;93996.66;;;18.45;68.30
20009;BME280;10165;42.662;23.260;2023-05-29T05:19:54;93999.97;;;18.11;70.51
20009;BME280;10165;42.662;23.260;2023-05-29T05:22:21;94003.44;;;18.12;70.67
20009;BME280;10165;42.662;23.260;2023-05-29T05:24:47;94007.13;;;18.43;69.31
20009;BME280;10165;42.662;23.260;2023-05-29T05:27:14;93998.59;;;18.44;69.49
20009;BME280;10165;42.662;23.260;2023-05-29T05:29:41;94003.25;;;18.40;68.56
20009;BME280;10165;42.662;23.260;2023-05-29T05:32:07;94007.00;;;18.64;68.28
20009;BME280;10165;42.662;23.260;2023-05-29T05:34:34;93997.81;;;18.51;69.21
20009;BME280;10165;42.662;23.260;2023-05-29T05:37:01;94002.25;;;18.17;69.36
20009;BME280;10165;42.662;23.260;2023-05-29T05:39:29;93998.75;;;18.23;71.31
20009;BME280;10165;42.662;23.260;2023-05-29T05:41:56;94002.41;;;18.57;68.93
20009;BME280;10165;42.662;23.260;2023-05-29T05:44:22;94007.50;;;18.41;70.24
20009;BME280;10165;42.662;23.260;2023-05-29T05:46:49;94002.63;;;18.81;68.47
20009;BME280;10165;42.662;23.260;2023-05-29T05:49:16;94004.09;;;18.92;68.30
20009;BME280;10165;42.662;23.260;2023-05-29T05:51:42;94000.09;;;19.07;67.29
20009;BME280;10165;42.662;23.260;2023-05-29T05:54:09;94005.75;;;19.24;66.30
20009;BME280;10165;42.662;23.260;2023-05-29T05:56:36;93998.78;;;18.82;67.15
20009;BME280;10165;42.662;23.260;2023-05-29T05:59:03;93997.50;;;18.97;66.61
20009;BME280;10165;42.662;23.260;2023-05-29T06:01:30;94003.69;;;18.94;66.19
20009;BME280;10165;42.662;23.260;2023-05-29T06:03:56;94000.69;;;18.81;65.99
20009;BME280;10165;42.662;23.260;2023-05-29T06:06:23;94004.00;;;19.03;66.27
20009;BME280;10165;42.662;23.260;2023-05-29T06:08:50;94008.72;;;18.33;67.59
20009;BME280;10165;42.662;23.260;2023-05-29T06:11:17;93999.41;;;18.38;67.93
20009;BME280;10165;42.662;23.260;2023-05-29T06:13:44;94007.56;;;18.93;66.87
20009;BME280;10165;42.662;23.260;2023-05-29T06:16:10;93996.63;;;19.48;65.53
20009;BME280;10165;42.662;23.260;2023-05-29T06:18:37;94012.81;;;19.92;64.39
20009;BME280;10165;42.662;23.260;2023-05-29T06:21:04;94009.44;;;19.44;66.44
20009;BME280;10165;42.662;23.260;2023-05-29T06:23:32;94007.88;;;19.02;67.31
20009;BME280;10165;42.662;23.260;2023-05-29T06:26:00;94017.84;;;18.60;67.38
20009;BME280;10165;42.662;23.260;2023-05-29T06:28:27;94021.53;;;19.32;65.63
20009;BME280;10165;42.662;23.260;2023-05-29T06:30:53;94017.38;;;19.21;64.90
20009;BME280;10165;42.662;23.260;2023-05-29T06:33:20;94026.69;;;19.20;66.02
20009;BME280;10165;42.662;23.260;2023-05-29T06:35:48;94021.34;;;19.09;66.23
20009;BME280;10165;42.662;23.260;2023-05-29T06:38:15;94011.66;;;19.12;65.61
20009;BME280;10165;42.662;23.260;2023-05-29T06:40:42;94019.69;;;18.78;66.90
20009;BME280;10165;42.662;23.260;2023-05-29T06:43:08;94021.59;;;19.25;65.42
20009;BME280;10165;42.662;23.260;2023-05-29T06:45:38;94018.59;;;18.65;66.48
20009;BME280;10165;42.662;23.260;2023-05-29T06:48:05;94029.06;;;19.55;63.86
20009;BME280;10165;42.662;23.260;2023-05-29T06:50:32;94027.50;;;19.58;63.82
20009;BME280;10165;42.662;23.260;2023-05-29T06:53:00;94021.81;;;19.41;63.86
20009;BME280;10165;42.662;23.260;2023-05-29T06:55:27;94015.91;;;19.09;65.40
20009;BME280;10165;42.662;23.260;2023-05-29T06:57:54;94019.66;;;19.26;65.62
20009;BME280;10165;42.662;23.260;2023-05-29T07:00:21;94027.91;;;19.56;65.14
20009;BME280;10165;42.662;23.260;2023-05-29T07:02:47;94027.97;;;19.49;64.43
20009;BME280;10165;42.662;23.260;2023-05-29T07:05:14;94027.59;;;19.50;63.79
20009;BME280;10165;42.662;23.260;2023-05-29T07:07:41;94029.25;;;19.34;63.85
20009;BME280;10165;42.662;23.260;2023-05-29T07:10:08;94026.41;;;19.51;63.04
20009;BME280;10165;42.662;23.260;2023-05-29T07:12:35;94024.72;;;19.65;62.77
20009;BME280;10165;42.662;23.260;2023-05-29T07:15:02;94020.88;;;19.96;62.12
20009;BME280;10165;42.662;23.260;2023-05-29T07:17:29;94030.41;;;20.41;61.01
20009;BME280;10165;42.662;23.260;2023-05-29T07:19:55;94022.16;;;20.48;60.13
20009;BME280;10165;42.662;23.260;2023-05-29T07:22:24;94031.72;;;20.30;60.41
20009;BME280;10165;42.662;23.260;2023-05-29T07:24:51;94032.38;;;20.68;59.21
20009;BME280;10165;42.662;23.260;2023-05-29T07:27:18;94026.47;;;20.16;59.94
20009;BME280;10165;42.662;23.260;2023-05-29T07:29:44;94021.19;;;20.62;59.75
20009;BME280;10165;42.662;23.260;2023-05-29T07:32:11;94022.31;;;20.38;61.15
20009;BME280;10165;42.662;23.260;2023-05-29T07:34:38;94025.22;;;20.54;61.81
20009;BME280;10165;42.662;23.260;2023-05-29T07:37:06;94030.59;;;20.58;61.80
20009;BME280;10165;42.662;23.260;2023-05-29T07:39:35;94027.19;;;20.20;62.36
20009;BME280;10165;42.662;23.260;2023-05-29T07:42:02;94015.81;;;19.98;63.17
20009;BME280;10165;42.662;23.260;2023-05-29T07:44:29;94026.41;;;20.19;62.39
20009;BME280;10165;42.662;23.260;2023-05-29T07:46:56;94022.28;;;20.68;59.06
20009;BME280;10165;42.662;23.260;2023-05-29T07:49:23;94021.00;;;20.19;59.52
20009;BME280;10165;42.662;23.260;2023-05-29T07:51:50;94023.34;;;20.74;58.42
20009;BME280;10165;42.662;23.260;2023-05-29T07:54:17;94020.63;;;20.47;58.37
20009;BME280;10165;42.662;23.260;2023-05-29T07:56:47;94022.44;;;20.27;59.26
20009;BME280;10165;42.662;23.260;2023-05-29T07:59:13;94013.63;;;20.77;60.20
20009;BME280;10165;42.662;23.260;2023-05-29T08:01:41;94010.75;;;21.11;57.39
20009;BME280;10165;42.662;23.260;2023-05-29T08:04:08;94014.47;;;20.97;56.94
20009;BME280;10165;42.662;23.260;2023-05-29T08:06:34;94021.19;;;20.62;58.03
20009;BME280;10165;42.662;23.260;2023-05-29T08:09:02;94011.31;;;20.48;57.85
20009;BME280;10165;42.662;23.260;2023-05-29T08:11:29;94018.94;;;20.84;57.82
20009;BME280;10165;42.662;23.260;2023-05-29T08:13:57;94019.84;;;21.00;57.83
20009;BME280;10165;42.662;23.260;2023-05-29T08:16:24;94022.16;;;21.49;57.38
20009;BME280;10165;42.662;23.260;2023-05-29T08:18:50;94025.25;;;20.50;57.98
20009;BME280;10165;42.662;23.260;2023-05-29T08:21:17;94027.97;;;20.77;58.28
20009;BME280;10165;42.662;23.260;2023-05-29T08:23:44;94026.13;;;20.71;57.02
20009;BME280;10165;42.662;23.260;2023-05-29T08:26:11;94030.28;;;21.29;56.32
20009;BME280;10165;42.662;23.260;2023-05-29T08:28:39;94023.34;;;21.24;55.56
20009;BME280;10165;42.662;23.260;2023-05-29T08:31:08;94036.47;;;20.52;58.93
20009;BME280;10165;42.662;23.260;2023-05-29T08:33:35;94038.09;;;20.46;59.42
20009;BME280;10165;42.662;23.260;2023-05-29T08:36:03;94035.78;;;20.98;58.17
20009;BME280;10165;42.662;23.260;2023-05-29T08:38:30;94037.19;;;20.57;58.33
20009;BME280;10165;42.662;23.260;2023-05-29T08:40:57;94026.97;;;20.91;57.12
20009;BME280;10165;42.662;23.260;2023-05-29T08:43:30;94030.09;;;20.89;57.83
20009;BME280;10165;42.662;23.260;2023-05-29T08:46:01;94031.38;;;20.81;57.22
20009;BME280;10165;42.662;23.260;2023-05-29T08:48:30;94028.44;;;20.72;57.81
20009;BME280;10165;42.662;23.260;2023-05-29T08:50:58;94019.81;;;21.27;55.96
20009;BME280;10165;42.662;23.260;2023-05-29T08:53:25;94013.84;;;21.36;56.07
20009;BME280;10165;42.662;23.260;2023-05-29T08:55:52;94014.19;;;20.91;56.08
20009;BME280;10165;42.662;23.260;2023-05-29T08:58:20;94011.66;;;21.04;55.59
20009;BME280;10165;42.662;23.260;2023-05-29T09:00:49;94012.03;;;21.29;56.45
20009;BME280;10165;42.662;23.260;2023-05-29T09:03:16;94012.84;;;21.26;55.54
20009;BME280;10165;42.662;23.260;2023-05-29T09:05:44;94006.09;;;20.88;56.44
20009;BME280;10165;42.662;23.260;2023-05-29T09:08:11;94001.88;;;21.33;56.00
20009;BME280;10165;42.662;23.260;2023-05-29T09:10:43;94003.75;;;22.19;54.73
20009;BME280;10165;42.662;23.260;2023-05-29T09:13:12;94003.34;;;21.38;56.53
20009;BME280;10165;42.662;23.260;2023-05-29T09:15:41;94000.41;;;21.02;55.07
20009;BME280;10165;42.662;23.260;2023-05-29T09:18:10;93992.47;;;21.38;54.99
20009;BME280;10165;42.662;23.260;2023-05-29T09:20:38;93995.44;;;21.86;54.74
20009;BME280;10165;42.662;23.260;2023-05-29T09:23:08;93988.19;;;21.80;53.94
20009;BME280;10165;42.662;23.260;2023-05-29T09:25:40;93987.63;;;21.69;53.20
20009;BME280;10165;42.662;23.260;2023-05-29T09:28:08;93990.78;;;22.26;53.50
20009;BME280;10165;42.662;23.260;2023-05-29T09:30:44;93984.81;;;22.31;49.35
20009;BME280;10165;42.662;23.260;2023-05-29T09:33:12;93992.53;;;21.11;50.54
20009;BME280;10165;42.662;23.260;2023-05-29T09:35:44;93978.72;;;21.88;48.65
20009;BME280;10165;42.662;23.260;2023-05-29T09:38:14;93968.41;;;22.19;49.61
20009;BME280;10165;42.662;23.260;2023-05-29T09:41:03;93973.41;;;22.20;49.00
20009;BME280;10165;42.662;23.260;2023-05-29T09:43:31;93967.09;;;22.07;52.08
20009;BME280;10165;42.662;23.260;2023-05-29T09:46:00;93962.25;;;22.15;50.24
20009;BME280;10165;42.662;23.260;2023-05-29T09:48:29;93961.47;;;22.66;48.54
20009;BME280;10165;42.662;23.260;2023-05-29T09:50:55;93965.19;;;21.84;49.21
20009;BME280;10165;42.662;23.260;2023-05-29T09:53:25;93956.19;;;22.07;50.01
20009;BME280;10165;42.662;23.260;2023-05-29T09:55:54;93958.63;;;22.21;48.98
20009;BME280;10165;42.662;23.260;2023-05-29T09:58:24;93955.16;;;22.01;49.68
20009;BME280;10165;42.662;23.260;2023-05-29T10:00:52;93965.75;;;22.15;49.50
20009;BME280;10165;42.662;23.260;2023-05-29T10:03:19;93952.69;;;22.26;49.17
20009;BME280;10165;42.662;23.260;2023-05-29T10:05:54;93952.97;;;22.12;48.92
20009;BME280;10165;42.662;23.260;2023-05-29T10:08:25;93949.03;;;21.58;49.98
20009;BME280;10165;42.662;23.260;2023-05-29T10:10:59;93943.91;;;22.19;50.19
20009;BME280;10165;42.662;23.260;2023-05-29T10:13:32;93953.75;;;22.65;48.41
20009;BME280;10165;42.662;23.260;2023-05-29T10:16:03;93945.22;;;23.11;47.58
20009;BME280;10165;42.662;23.260;2023-05-29T10:18:54;93954.44;;;23.01;47.13
20009;BME280;10165;42.662;23.260;2023-05-29T10:21:21;93952.19;;;23.00;46.58
20009;BME280;10165;42.662;23.260;2023-05-29T10:23:50;93949.13;;;22.62;47.26
20009;BME280;10165;42.662;23.260;2023-05-29T10:26:26;93943.56;;;23.01;46.61
20009;BME280;10165;42.662;23.260;2023-05-29T10:28:58;93944.81;;;22.97;47.75
20009;BME280;10165;42.662;23.260;2023-05-29T10:31:35;93939.53;;;23.22;46.66
20009;BME280;10165;42.662;23.260;2023-05-29T10:36:49;93937.16;;;23.08;46.00
20009;BME280;10165;42.662;23.260;2023-05-29T10:39:22;93940.91;;;22.98;46.62
20009;BME280;10165;42.662;23.260;2023-05-29T10:41:49;93938.75;;;23.38;47.76
20009;BME280;10165;42.662;23.260;2023-05-29T10:49:25;93937.84;;;21.72;49.84
20009;BME280;10165;42.662;23.260;2023-05-29T10:51:52;93926.81;;;22.18;51.23
20009;BME280;10165;42.662;23.260;2023-05-29T10:54:23;93923.63;;;22.56;50.55
20009;BME280;10165;42.662;23.260;2023-05-29T10:57:03;93917.81;;;23.18;47.82
20009;BME280;10165;42.662;23.260;2023-05-29T10:59:35;93913.75;;;22.46;46.28
20009;BME280;10165;42.662;23.260;2023-05-29T11:02:03;93914.97;;;22.77;46.85
20009;BME280;10165;42.662;23.260;2023-05-29T11:04:31;93906.59;;;22.52;47.31
20009;BME280;10165;42.662;23.260;2023-05-29T11:06:59;93907.59;;;23.22;45.33
20009;BME280;10165;42.662;23.260;2023-05-29T11:14:47;93908.03;;;23.05;46.78
20009;BME280;10165;42.662;23.260;2023-05-29T11:17:31;93910.41;;;23.64;48.19
20009;BME280;10165;42.662;23.260;2023-05-29T11:20:02;93910.19;;;22.97;47.87
20009;BME280;10165;42.662;23.260;2023-05-29T11:25:20;93896.22;;;22.30;51.58
20009;BME280;10165;42.662;23.260;2023-05-29T11:27:47;93900.59;;;22.08;52.71
20009;BME280;10165;42.662;23.260;2023-05-29T11:30:14;93894.97;;;21.79;53.68
20009;BME280;10165;42.662;23.260;2023-05-29T11:32:44;93895.25;;;22.73;52.56
20009;BME280;10165;42.662;23.260;2023-05-29T11:35:12;93895.97;;;23.06;52.11
20009;BME280;10165;42.662;23.260;2023-05-29T11:37:44;93898.28;;;23.36;50.24
20009;BME280;10165;42.662;23.260;2023-05-29T11:40:13;93886.63;;;23.64;50.35
20009;BME280;10165;42.662;23.260;2023-05-29T11:42:45;93888.22;;;23.62;49.15
20009;BME280;10165;42.662;23.260;2023-05-29T11:45:20;93883.91;;;23.19;49.18
20009;BME280;10165;42.662;23.260;2023-05-29T11:47:51;93880.56;;;22.67;50.72
20009;BME280;10165;42.662;23.260;2023-05-29T11:50:19;93890.75;;;23.11;49.59
20009;BME280;10165;42.662;23.260;2023-05-29T11:52:47;93888.06;;;22.79;47.68
20009;BME280;10165;42.662;23.260;2023-05-29T11:55:14;93890.94;;;22.39;47.74
20009;BME280;10165;42.662;23.260;2023-05-29T11:57:41;93885.84;;;23.06;48.48
20009;BME280;10165;42.662;23.260;2023-05-29T12:00:11;93879.31;;;22.88;49.12
20009;BME280;10165;42.662;23.260;2023-05-29T12:02:38;93862.25;;;23.45;49.61
20009;BME280;10165;42.662;23.260;2023-05-29T12:05:06;93863.63;;;24.03;47.07
20009;BME280;10165;42.662;23.260;2023-05-29T12:07:36;93857.53;;;23.16;46.40
20009;BME280;10165;42.662;23.260;2023-05-29T12:10:12;93868.13;;;22.98;47.20
20009;BME280;10165;42.662;23.260;2023-05-29T12:12:41;93868.81;;;23.02;47.05
20009;BME280;10165;42.662;23.260;2023-05-29T12:15:08;93867.03;;;22.47;48.52
20009;BME280;10165;42.662;23.260;2023-05-29T12:17:36;93874.72;;;22.68;50.21
20009;BME280;10165;42.662;23.260;2023-05-29T12:20:04;93881.50;;;22.28;53.20
20009;BME280;10165;42.662;23.260;2023-05-29T12:22:34;93881.13;;;20.68;59.88
20009;BME280;10165;42.662;23.260;2023-05-29T12:25:10;93889.47;;;20.04;62.53
20009;BME280;10165;42.662;23.260;2023-05-29T12:27:46;93897.50;;;19.84;64.22
20009;BME280;10165;42.662;23.260;2023-05-29T12:30:21;93907.50;;;20.91;61.70
20009;BME280;10165;42.662;23.260;2023-05-29T12:32:59;93914.47;;;20.45;64.00
20009;BME280;10165;42.662;23.260;2023-05-29T12:35:28;93917.47;;;20.97;61.29
20009;BME280;10165;42.662;23.260;2023-05-29T12:38:04;93912.66;;;21.28;65.36
20009;BME280;10165;42.662;23.260;2023-05-29T12:40:32;93910.34;;;21.50;65.65
20009;BME280;10165;42.662;23.260;2023-05-29T12:43:06;93919.66;;;21.69;64.77
20009;BME280;10165;42.662;23.260;2023-05-29T12:45:33;93923.97;;;21.86;63.35
20009;BME280;10165;42.662;23.260;2023-05-29T12:48:05;93930.34;;;20.93;64.59
20009;BME280;10165;42.662;23.260;2023-05-29T12:53:07;93926.31;;;20.55;69.08
20009;BME280;10165;42.662;23.260;2023-05-29T12:55:36;93928.06;;;20.69;69.29
20009;BME280;10165;42.662;23.260;2023-05-29T12:58:13;93923.72;;;20.48;70.73
20009;BME280;10165;42.662;23.260;2023-05-29T13:00:41;93920.16;;;20.51;72.54
20009;BME280;10165;42.662;23.260;2023-05-29T13:03:09;93915.41;;;20.59;75.38
20009;BME280;10165;42.662;23.260;2023-05-29T13:05:37;93926.44;;;20.48;71.97
20009;BME280;10165;42.662;23.260;2023-05-29T13:08:06;93925.78;;;20.64;74.09
20009;BME280;10165;42.662;23.260;2023-05-29T13:10:34;93919.53;;;20.67;75.52
20009;BME280;10165;42.662;23.260;2023-05-29T13:13:03;93920.94;;;20.98;75.51
20009;BME280;10165;42.662;23.260;2023-05-29T13:15:30;93921.41;;;20.93;69.24
20009;BME280;10165;42.662;23.260;2023-05-29T13:17:59;93919.78;;;20.76;73.85
20009;BME280;10165;42.662;23.260;2023-05-29T13:20:26;93914.69;;;21.01;72.81
20009;BME280;10165;42.662;23.260;2023-05-29T13:22:53;93925.09;;;20.60;69.70
20009;BME280;10165;42.662;23.260;2023-05-29T13:25:21;93922.44;;;21.03;71.00